createdAt,value
2018-08-28T00:08:28.070Z,1010.7
2018-08-28T00:18:43.015Z,1010.6
2018-08-28T00:28:57.964Z,1010.7
2018-08-28T00:39:12.060Z,1010.9
2018-08-28T00:49:27.179Z,1010.9
2018-08-28T00:59:41.467Z,1011
2018-08-28T01:09:56.260Z,1011
2018-08-28T01:20:10.133Z,1010.9
2018-08-28T01:30:25.388Z,1011
2018-08-28T01:40:40.382Z,1010.9
2018-08-28T01:50:55.893Z,1011
2018-08-28T02:01:09.925Z,1011.1
2018-08-28T02:11:23.641Z,1011.1
2018-08-28T02:21:38.823Z,1011.1
2018-08-28T02:31:53.597Z,1011.1
2018-08-28T02:42:08.254Z,1011.1
2018-08-28T02:52:22.631Z,1011.1
2018-08-28T03:02:36.824Z,1011.1
2018-08-28T03:12:50.902Z,1011.2
2018-08-28T03:23:06.546Z,1011.2
2018-08-28T03:33:21.576Z,1011.3
2018-08-28T03:43:35.999Z,1011.3
2018-08-28T03:53:49.921Z,1011.4
2018-08-28T04:04:03.735Z,1011.4
2018-08-28T04:14:17.518Z,1011.4
2018-08-28T04:24:31.461Z,1011.4
2018-08-28T04:34:46.465Z,1011.6
2018-08-28T04:45:01.888Z,1011.7
2018-08-28T04:55:17.090Z,1011.8
2018-08-28T05:05:31.766Z,1011.9
2018-08-28T05:15:47.449Z,1012.1
2018-08-28T05:26:02.056Z,1012.1
2018-08-28T05:36:16.532Z,1012.2
2018-08-28T05:46:30.972Z,1012.2
2018-08-28T05:56:45.668Z,1012.4
2018-08-28T06:06:59.911Z,1012.5
2018-08-28T06:17:14.607Z,1012.6
2018-08-28T06:27:27.988Z,1012.6
2018-08-28T06:37:42.588Z,1012.8
2018-08-28T06:47:58.212Z,1012.9
2018-08-28T06:58:11.956Z,1013
2018-08-28T07:08:27.359Z,1013.1
2018-08-28T07:18:41.500Z,1013.2
2018-08-28T07:28:57.105Z,1013.3
2018-08-28T07:39:11.822Z,1013.5
2018-08-28T07:49:26.593Z,1013.5
2018-08-28T07:59:41.418Z,1013.5
2018-08-28T08:09:55.544Z,1013.6
2018-08-28T08:20:10.583Z,1013.7
2018-08-28T08:30:24.450Z,1013.7
2018-08-28T08:40:39.474Z,1013.6
2018-08-28T08:50:54.692Z,1013.7
2018-08-28T09:01:10.055Z,1013.7
2018-08-28T09:11:24.822Z,1013.8
2018-08-28T09:21:39.108Z,1013.8
2018-08-28T09:31:53.002Z,1013.8
2018-08-28T09:42:07.636Z,1013.9
2018-08-28T09:52:21.992Z,1013.5
2018-08-28T10:02:37.730Z,1013.7
2018-08-28T10:12:53.301Z,1013.7
2018-08-28T10:23:07.840Z,1013.4
2018-08-28T10:33:22.593Z,1013.4
2018-08-28T10:43:36.623Z,1013.5
2018-08-28T10:53:51.993Z,1013.5
2018-08-28T11:04:07.947Z,1013.5
2018-08-28T11:14:21.277Z,1013.6
2018-08-28T11:24:35.165Z,1013.8
2018-08-28T11:34:49.336Z,1014
2018-08-28T11:45:03.633Z,1013.7
2018-08-28T11:55:19.336Z,1013.5
2018-08-28T12:15:50.694Z,1013.4
2018-08-28T12:26:06.153Z,1013.4
2018-08-28T12:36:20.366Z,1013.3
2018-08-28T12:46:35.574Z,1013.1
2018-08-28T12:56:51.058Z,1012.9
2018-08-28T13:07:05.977Z,1012.9
2018-08-28T13:17:20.094Z,1013
2018-08-28T13:27:35.562Z,1013
2018-08-28T13:37:49.813Z,1012.8
2018-08-28T13:48:05.318Z,1012.8
2018-08-28T13:58:20.291Z,1012.5
2018-08-28T14:08:35.935Z,1012.4
2018-08-28T14:18:51.668Z,1012.4
2018-08-28T14:29:05.536Z,1012.2
2018-08-28T14:39:21.420Z,1012.2
2018-08-28T14:49:36.646Z,1012.1
2018-08-28T14:59:51.839Z,1012
2018-08-28T15:10:06.754Z,1012.2
2018-08-28T15:20:22.414Z,1012
2018-08-28T15:30:36.594Z,1011.9
2018-08-28T15:40:50.903Z,1011.8
2018-08-28T15:51:06.340Z,1011.6
2018-08-28T16:01:20.431Z,1011.6
2018-08-28T16:11:35.945Z,1011.4
2018-08-28T16:21:50.047Z,1011.4
2018-08-28T16:32:03.983Z,1011.3
2018-08-28T16:42:19.573Z,1011.2
2018-08-28T16:52:35.079Z,1011.2
2018-08-28T17:02:49.826Z,1011
2018-08-28T17:13:04.151Z,1010.9
2018-08-28T17:23:19.225Z,1010.8
2018-08-28T17:33:33.082Z,1010.6
2018-08-28T17:43:48.616Z,1010.6
2018-08-28T17:54:03.771Z,1010.6
2018-08-28T18:04:18.718Z,1010.7
2018-08-28T18:14:33.311Z,1010.6
2018-08-28T18:24:48.550Z,1010.7
2018-08-28T18:35:03.427Z,1010.7
2018-08-28T18:45:18.685Z,1010.7
2018-08-28T18:55:32.490Z,1010.7
2018-08-28T19:05:46.560Z,1010.6
2018-08-28T19:16:01.324Z,1010.7
2018-08-28T19:26:15.533Z,1010.6
2018-08-28T19:36:30.832Z,1010.5
2018-08-28T19:46:45.621Z,1010.4
2018-08-28T19:57:00.058Z,1010.4
2018-08-28T20:07:14.803Z,1010.3
2018-08-28T20:17:29.405Z,1010.2
2018-08-28T20:27:43.726Z,1010.2
2018-08-28T20:37:59.193Z,1010.1
2018-08-28T20:48:13.430Z,1010.1
2018-08-28T20:58:28.166Z,1010
2018-08-28T21:08:42.924Z,1009.9
2018-08-28T21:18:57.846Z,1009.8
2018-08-28T21:29:13.033Z,1009.7
2018-08-28T21:39:27.825Z,1009.6
2018-08-28T21:49:42.403Z,1009.4
2018-08-28T21:59:57.420Z,1009.3
2018-08-28T22:10:12.504Z,1009.3
2018-08-28T22:20:27.143Z,1009.3
2018-08-28T22:30:41.030Z,1009.3
2018-08-28T22:40:55.196Z,1009.3
2018-08-28T22:51:09.344Z,1009.2
2018-08-28T23:01:23.481Z,1009.2
2018-08-28T23:11:37.907Z,1009.1
2018-08-28T23:21:52.778Z,1008.9
2018-08-28T23:32:07.269Z,1008.9
2018-08-28T23:42:22.997Z,1008.9
2018-08-28T23:52:38.481Z,1008.8
